Latest Weather Observations for Goulburn Airport

IDN60901

Issued at 1:01 pm EST Tuesday 21 April 2015 (issued every 10 minutes, with the page automatically refreshed every 10 minutes)

About weather observations | Map of Canberra area stations | Latest observations for Canberra area | Other Formats
Station Details ID: 070330 Name: GOULBURN AIRPORT AWS Lat: -34.81 Lon: 149.73 Height: 640.0 m
Data from the previous 72 hours. | See also: Recent months at Goulburn Airport
Date/Time
EST
Tmp

°C
App
Tmp
°C
Dew
Point
°C
Rel
Hum
%
Delta-T

°C
Wind Press
QNH
hPa
Press
MSL
hPa
Rain
since
9 am
mm
Dir
 
Spd
km/h
Gust
km/h
Spd
kts
Gust
kts
21/01:00pm 9.6 1.6 7.4 86 1.1 SSE 39 54 21 29 1023.3 1022.5 0.4
21/12:30pm 9.6 2.8 7.9 89 0.8 SSE 33 46 18 25 1023.7 1022.9 0.4
21/12:13pm 9.3 2.1 7.6 89 0.8 SSE 35 54 19 29 1023.9 1023.1 0.4
21/12:00pm 9.2 1.6 7.6 90 0.8 SSE 37 50 20 27 1024.1 1023.4 0.4
21/11:30am 8.8 0.8 7.6 92 0.6 SSE 39 54 21 29 1024.3 1023.6 0.4
21/11:00am 8.7 2.1 7.6 93 0.5 SSE 32 43 17 23 1024.7 1024.0 0.2
21/10:30am 8.5 0.9 7.4 93 0.5 SSE 37 50 20 27 1025.1 1024.3 0.2
21/10:00am 8.4 0.7 7.3 93 0.5 SSE 37 50 20 27 1025.5 1024.8 0.2
21/09:30am 8.2 0.5 7.1 93 0.5 SSE 37 48 20 26 1025.4 1024.6 0.2
21/09:16am 8.3 1.4 7.4 94 0.4 SSE 33 52 18 28 1025.6 1024.9 0.2
21/09:00am 8.1 0.4 7.0 93 0.5 SSE 37 48 20 26 1025.9 1025.2 2.8
21/08:46am 8.0 1.0 6.8 92 0.6 SSE 33 52 18 28 1025.9 1025.2 2.8
21/08:30am 7.8 0.4 6.6 92 0.6 SSE 35 46 19 25 1025.8 1025.1 2.8
21/08:00am 7.7 -0.1 6.6 93 0.5 SSE 37 50 20 27 1025.8 1025.1 2.8
21/07:30am 7.8 0.8 6.9 94 0.4 SSE 33 44 18 24 1025.5 1024.8 2.8
21/07:00am 7.6 0.8 6.9 95 0.3 SSE 32 39 17 21 1025.2 1024.4 2.8
21/06:34am 7.6 1.2 6.9 95 0.3 SSE 30 48 16 26 1025.2 1024.4 2.6
21/06:30am 7.6 0.6 6.7 94 0.4 SSE 33 48 18 26 1025.2 1024.4 2.4
21/06:00am 7.9 1.5 7.0 94 0.4 SSE 30 39 16 21 1025.2 1024.4 2.2
21/05:30am 8.0 1.6 7.1 94 0.4 SSE 30 41 16 22 1025.0 1024.2 2.2
21/05:00am 7.9 1.5 7.1 95 0.4 SSE 30 39 16 21 1024.9 1024.1 2.0
21/04:30am 7.9 1.9 7.0 94 0.4 S 28 35 15 19 1024.9 1024.1 1.8
21/04:00am 7.8 2.6 7.1 95 0.3 SSE 24 35 13 19 1025.1 1024.3 1.6
21/03:30am 7.9 1.9 7.1 95 0.4 SSE 28 39 15 21 1025.0 1024.2 1.0
21/03:00am 8.0 1.6 7.1 94 0.4 SSE 30 39 16 21 1024.9 1024.1 0.8
21/02:30am 7.9 1.1 7.0 94 0.4 SSE 32 41 17 22 1025.3 1024.5 0.6
21/02:00am 7.9 0.9 6.8 93 0.5 SSE 33 44 18 24 1025.5 1024.8 0.2
21/01:30am 8.2 1.3 7.1 93 0.5 SSE 33 43 18 23 1025.7 1025.0 0.2
21/01:00am 7.9 1.1 6.8 93 0.5 SSE 32 41 17 22 1025.9 1025.2 0.2
21/12:30am 7.9 0.4 6.5 91 0.7 SSE 35 48 19 26 1026.1 1025.4 0.2
 
Date/Time
EST
Tmp

°C
App
Tmp
°C
Dew
Point
°C
Rel
Hum
%
Delta-T

°C
Wind Press
QNH
hPa
Press
MSL
hPa
Rain
since
9 am
mm
Dir
 
Spd
km/h
Gust
km/h
Spd
kts
Gust
kts
20/11:30pm 8.1 0.7 6.9 92 0.6 SSE 35 50 19 27 1026.6 1025.8 0.2
20/11:00pm 8.4 1.5 7.2 92 0.6 SSE 33 46 18 25 1026.8 1026.0 0.2
20/10:30pm 8.6 2.3 7.2 91 0.7 SSE 30 43 16 23 1027.2 1026.5 0.2
20/10:09pm 8.7 2.8 7.3 91 0.7 SSE 28 48 15 26 1027.5 1026.8 0.2
20/10:00pm 8.9 2.9 7.0 88 0.9 SSE 28 39 15 21 1027.6 1026.9 0.2
20/09:30pm 8.7 2.3 7.0 89 0.8 SSE 30 43 16 23 1027.5 1026.8 0.2
20/09:00pm 8.6 1.6 6.9 89 0.8 SSE 33 46 18 25 1027.1 1026.4 0.2
20/08:30pm 8.9 1.9 6.7 86 1.1 SSE 33 48 18 26 1026.9 1026.2 0.2
20/08:00pm 9.0 2.1 6.4 84 1.2 SSE 32 43 17 23 1026.7 1025.9 0.2
20/07:41pm 9.0 1.5 6.3 83 1.3 SSE 35 54 19 29 1026.4 1025.7 0.2
20/07:30pm 9.0 0.7 6.1 82 1.4 SSE 39 52 21 28 1026.4 1025.7 0.2
20/07:29pm 9.0 0.7 6.1 82 1.4 SSE 39 52 21 28 1026.4 1025.7 0.2
20/07:09pm 9.1 0.7 5.8 80 1.6 SSE 39 63 21 34 1026.6 1025.8 0.2
20/07:00pm 9.2 0.1 5.8 79 1.6 SSE 43 57 23 31 1026.4 1025.7 0.2
20/06:39pm 9.2 2.0 5.8 79 1.6 SSE 33 56 18 30 1026.3 1025.6 0.2
20/06:30pm 9.2 2.0 5.9 80 1.6 SSE 33 44 18 24 1026.2 1025.5 0.2
20/06:27pm 9.2 1.6 5.9 80 1.6 SSE 35 44 19 24 1026.2 1025.5 0.2
20/06:14pm 9.2 2.0 5.8 79 1.6 SSE 33 56 18 30 1026.2 1025.5 0.2
20/05:43pm 8.9 1.4 6.2 83 1.3 SSE 35 50 19 27 1026.6 1025.8 0.2
20/05:30pm 9.2 0.5 6.1 81 1.5 SSE 41 56 22 30 1026.2 1025.5 0.2
20/05:00pm 9.3 1.8 6.2 81 1.5 SSE 35 48 19 26 1026.7 1025.9 0.2
20/04:39pm 9.7 2.7 6.2 79 1.7 SSE 32 50 17 27 1026.3 1025.6 0.2
20/04:30pm 9.5 2.4 6.6 82 1.4 SSE 33 44 18 24 1026.3 1025.6 0.2
20/04:00pm 9.6 2.6 6.9 83 1.3 SSE 33 46 18 25 1026.6 1025.8 0.2
20/03:30pm 9.5 3.1 6.8 83 1.3 SSE 30 41 16 22 1026.2 1025.5 0.2
20/03:00pm 10.1 2.2 6.4 78 1.8 SSE 37 56 20 30 1026.0 1025.3 0.2
20/02:58pm 10.2 2.4 6.5 78 1.8 SSE 37 56 20 30 1026.0 1025.3 0.2
20/02:30pm 10.1 2.7 6.8 80 1.6 SSE 35 50 19 27 1025.7 1025.0 0.2
20/02:00pm 9.8 2.2 7.6 86 1.1 SSE 37 50 20 27 1025.7 1025.0 0.2
20/01:47pm 10.0 1.1 6.9 81 1.5 SSE 43 61 23 33 1025.9 1025.2 0.0
20/01:30pm 10.9 2.8 7.0 77 1.9 SSE 39 50 21 27 1026.0 1025.3 0.0
20/01:00pm 11.1 2.7 7.4 78 1.8 SSE 41 57 22 31 1026.1 1025.4 0.0
20/12:56pm 10.9 2.9 7.6 80 1.6 SSE 39 57 21 31 1026.1 1025.4 0.0
20/12:30pm 10.8 2.3 6.9 77 1.9 SSE 41 56 22 30 1026.6 1025.8 0.0
20/12:19pm 10.6 3.7 7.1 79 1.7 SSE 33 43 18 23 1026.6 1025.8 0.0
20/12:01pm 10.3 3.1 7.7 84 1.3 SSE 35 54 19 29 1026.4 1025.7 0.0
20/12:00pm 10.3 2.7 7.7 84 1.3 SSE 37 54 20 29 1026.4 1025.7 0.0
20/11:45am 9.9 3.1 7.8 87 1.0 SSE 33 52 18 28 1026.8 1026.0 0.0
20/11:30am 9.6 2.8 7.5 87 1.0 SSE 33 46 18 25 1026.8 1026.0 0.0
20/11:00am 9.0 2.1 7.1 88 0.9 SSE 33 46 18 25 1027.9 1027.2 0.0
20/10:30am 8.8 0.3 6.9 88 0.9 SSE 41 63 22 34 1027.4 1026.7 0.0
20/10:19am 9.1 0.9 6.7 85 1.2 SSE 39 63 21 34 1027.3 1026.6 0.0
20/10:00am 9.2 1.0 6.6 84 1.2 SSE 39 54 21 29 1027.7 1027.0 0.0
20/09:30am 8.8 1.4 6.8 87 1.0 SSE 35 54 19 29 1028.0 1027.3 0.0
20/09:23am 9.1 1.7 6.7 85 1.2 SSE 35 54 19 29 1027.9 1027.2 0.0
20/09:00am 8.6 -0.1 6.2 85 1.1 SSE 41 54 22 29 1027.9 1027.2 9.4
20/08:47am 8.9 1.5 6.9 87 1.0 SSE 35 56 19 30 1027.6 1026.9 9.4
20/08:30am 8.2 1.3 6.5 89 0.8 SSE 32 39 17 21 1028.0 1027.3 9.4
20/08:08am 8.1 1.6 6.6 90 0.7 SSE 30 48 16 26 1027.7 1027.0 9.4
20/08:00am 7.9 1.8 6.4 90 0.7 SSE 28 41 15 22 1027.6 1026.9 9.4
20/07:45am 7.6 2.5 6.2 91 0.7 SSE 22 35 12 19 1027.4 1026.7 9.4
20/07:30am 7.3 1.8 6.1 92 0.6 S 24 33 13 18 1027.2 1026.5 9.0
20/07:16am 7.0 1.9 5.8 92 0.6 S 22 30 12 16 1027.2 1026.5 8.6
20/07:00am 7.0 2.2 5.6 91 0.6 S 20 28 11 15 1027.2 1026.5 8.2
20/06:30am 7.1 1.5 5.4 89 0.8 S 24 30 13 16 1027.0 1026.3 7.8
20/06:00am 7.1 1.9 5.3 88 0.8 S 22 30 12 16 1026.9 1026.2 7.6
20/05:30am 7.0 1.3 4.8 86 1.0 S 24 32 13 17 1026.6 1025.8 7.6
20/05:00am 6.9 0.5 5.1 88 0.8 S 28 39 15 21 1026.4 1025.7 7.6
20/04:30am 6.7 0.6 4.7 87 0.9 S 26 35 14 19 1026.6 1025.8 7.6
20/04:22am 6.7 1.0 4.9 88 0.8 SSE 24 35 13 19 1026.6 1025.8 7.6
20/04:00am 6.6 0.8 4.6 87 0.9 SSE 24 33 13 18 1026.4 1025.7 7.6
20/03:30am 6.4 -0.5 4.4 87 0.9 S 30 39 16 21 1025.9 1025.2 7.6
20/03:00am 6.3 -0.2 4.6 89 0.8 S 28 37 15 20 1026.1 1025.4 7.6
20/02:30am 6.3 -0.6 4.8 90 0.7 SSE 30 39 16 21 1026.4 1025.7 7.6
20/02:00am 6.4 1.1 5.0 91 0.6 SSE 22 30 12 16 1027.0 1026.3 7.6
20/01:30am 6.6 1.9 5.2 91 0.6 S 19 26 10 14 1027.3 1026.6 7.4
20/01:00am 6.8 2.2 5.4 91 0.6 S 19 24 10 13 1027.6 1026.9 7.0
20/12:30am 7.1 3.3 5.7 91 0.7 S 15 20 8 11 1027.5 1026.8 6.4
20/12:00am 7.2 3.0 5.7 90 0.7 SSE 17 22 9 12 1027.5 1026.8 6.0
 
Date/Time
EST
Tmp

°C
App
Tmp
°C
Dew
Point
°C
Rel
Hum
%
Delta-T

°C
Wind Press
QNH
hPa
Press
MSL
hPa
Rain
since
9 am
mm
Dir
 
Spd
km/h
Gust
km/h
Spd
kts
Gust
kts
19/11:30pm 7.6 3.4 5.9 89 0.8 SSE 17 24 9 13 1027.4 1026.7 5.6
19/11:00pm 7.8 4.9 6.4 91 0.7 S 11 15 6 8 1027.5 1026.8 5.0
19/10:30pm 7.8 4.9 6.4 91 0.7 S 11 15 6 8 1027.3 1026.6 5.0
19/10:00pm 7.7 4.4 6.6 93 0.5 S 13 17 7 9 1027.1 1026.4 5.0
19/09:30pm 7.6 5.7 6.7 94 0.4 SSW 6 9 3 5 1027.4 1026.7 5.0
19/09:00pm 7.4 5.3 6.5 94 0.4 SSW 7 9 4 5 1026.8 1026.0 5.0
19/08:30pm 7.4 5.2 6.3 93 0.5 SSW 7 9 4 5 1026.7 1025.9 5.0
19/08:00pm 7.3 4.3 6.2 93 0.5 SSW 11 13 6 7 1026.3 1025.6 5.0
19/07:30pm 7.3 4.7 6.1 92 0.6 SSW 9 13 5 7 1026.1 1025.4 5.0
19/07:00pm 7.4 3.9 5.5 88 0.9 S 13 19 7 10 1025.6 1024.9 4.8
19/06:30pm 7.3 3.1 5.9 91 0.7 SSE 17 22 9 12 1025.3 1024.5 4.8
19/06:00pm 7.3 2.8 6.1 92 0.6 SSE 19 26 10 14 1025.0 1024.2 4.4
19/05:30pm 7.5 2.9 6.6 94 0.4 SSE 20 26 11 14 1024.5 1023.8 4.4
19/05:05pm 7.4 2.8 6.5 94 0.4 SSE 20 26 11 14 1024.3 1023.6 4.2
19/05:00pm 7.4 2.4 6.3 93 0.5 SSE 22 26 12 14 1024.3 1023.6 4.2
19/04:36pm 7.4 2.4 6.3 93 0.5 SSE 22 32 12 17 1024.0 1023.2 3.8
19/04:30pm 7.3 1.8 6.1 92 0.6 SSE 24 32 13 17 1024.0 1023.2 3.6
19/04:00pm 7.6 0.7 6.5 93 0.5 SSE 32 39 17 21 1023.3 1022.5 3.6
19/03:53pm 7.8 1.4 6.9 94 0.4 S 30 39 16 21 1023.0 1022.3 3.6
19/03:30pm 8.3 1.4 7.1 92 0.6 SSE 33 43 18 23 1022.5 1021.7 2.8
19/03:15pm 9.6 3.3 7.5 87 1.0 SSW 30 48 16 26 1021.8 1021.0 1.6
19/03:12pm 10.4 5.8 8.3 87 1.1 SW 22 41 12 22 1021.7 1020.9 1.6
19/03:07pm 11.5 8.3 9.8 89 0.9 WSW 17 22 9 12 1021.4 1020.7 1.6
19/03:00pm 11.8 9.4 10.0 89 0.9 WSW 13 20 7 11 1021.3 1020.5 1.6
19/02:30pm 12.1 8.0 10.0 87 1.1 W 22 33 12 18 1020.8 1020.0 0.6
19/02:00pm 14.8 11.5 9.4 70 2.9 NW 17 22 9 12 1020.4 1019.6 0.2
19/01:30pm 14.4 11.5 9.6 73 2.6 NW 15 19 8 10 1020.4 1019.6 0.2
19/01:00pm 14.3 11.0 9.5 73 2.5 WNW 17 20 9 11 1020.6 1019.8 0.0
19/12:30pm 14.6 10.9 9.6 72 2.7 WNW 19 26 10 14 1020.7 1019.9 0.0
19/12:00pm 14.7 12.0 9.1 69 2.9 WNW 13 19 7 10 1020.8 1020.0 0.0
19/11:30am 14.5 11.2 9.7 73 2.6 WNW 17 22 9 12 1021.2 1020.4 0.0
19/11:00am 13.9 10.2 9.3 74 2.4 W 19 26 10 14 1021.1 1020.3 0.0
19/10:51am 14.5 11.4 10.3 76 2.3 WNW 17 26 9 14 1021.1 1020.3 0.0
19/10:30am 14.1 10.7 9.3 73 2.5 W 17 22 9 12 1021.1 1020.3 0.0
19/10:10am 13.3 9.3 9.0 75 2.2 W 20 28 11 15 1021.0 1020.2 0.0
19/10:00am 13.3 9.0 9.2 76 2.1 W 22 28 12 15 1020.8 1020.0 0.0
19/09:30am 13.5 8.3 9.0 74 2.4 W 26 33 14 18 1020.6 1019.8 0.0
19/09:00am 12.8 8.0 8.9 77 2.0 W 24 32 13 17 1020.5 1019.7 5.2
19/08:30am 12.2 7.9 9.2 82 1.6 W 22 32 12 17 1020.4 1019.6 5.2
19/08:00am 11.3 7.5 9.0 86 1.2 W 19 22 10 12 1019.7 1018.9 5.2
19/07:30am 10.5 7.4 8.8 89 0.9 WNW 15 22 8 12 1019.6 1018.8 5.2
19/07:00am 9.5 7.0 8.4 93 0.6 WSW 11 19 6 10 1018.9 1018.1 5.2
19/06:37am 8.6 5.5 7.4 92 0.6 NW 13 17 7 9 1018.8 1018.0 5.2
19/06:30am 8.8 6.2 7.6 92 0.6 NW 11 17 6 9 1018.7 1017.9 5.2
19/06:00am 9.6 8.5 8.4 92 0.6 ESE 4 6 2 3 1018.0 1017.2 5.2
19/05:53am 9.3 7.7 7.9 91 0.7 WSW 6 9 3 5 1017.9 1017.1 5.2
19/05:30am 9.6 6.0 8.2 91 0.7 WNW 17 20 9 11 1017.3 1016.4 5.2
19/05:00am 9.9 6.0 8.5 91 0.7 WNW 19 26 10 14 1017.0 1016.1 5.2
19/04:30am 10.3 6.5 8.9 91 0.7 WNW 19 24 10 13 1016.6 1015.7 5.2
19/04:02am 10.9 7.0 9.5 91 0.7 WNW 20 26 11 14 1016.3 1015.5 5.0
19/04:00am 10.9 7.0 9.5 91 0.7 WNW 20 26 11 14 1016.3 1015.5 5.0
19/03:30am 11.7 8.6 10.4 92 0.7 WNW 17 24 9 13 1016.2 1015.4 5.0
19/03:00am 12.3 8.8 10.9 91 0.8 W 20 30 11 16 1015.9 1015.0 5.0
19/02:30am 13.1 9.1 11.7 91 0.8 W 24 39 13 21 1015.8 1014.9 5.0
19/02:00am 13.8 11.5 13.0 95 0.5 WNW 17 20 9 11 1015.8 1014.9 5.0
19/01:30am 13.8 11.5 12.9 94 0.5 NW 17 20 9 11 1015.9 1015.0 4.8
19/01:00am 14.3 12.6 12.3 88 1.1 NW 13 20 7 11 1016.1 1015.3 4.8
19/12:30am 14.2 13.8 12.4 89 1.0 NW 6 9 3 5 1016.1 1015.3 4.8
19/12:22am 14.0 13.5 12.2 89 1.0 NNW 6 9 3 5 1016.0 1015.2 4.8
19/12:00am 14.3 12.1 12.2 87 1.2 WNW 15 24 8 13 1015.9 1015.0 4.8
 
Date/Time
EST
Tmp

°C
App
Tmp
°C
Dew
Point
°C
Rel
Hum
%
Delta-T

°C
Wind Press
QNH
hPa
Press
MSL
hPa
Rain
since
9 am
mm
Dir
 
Spd
km/h
Gust
km/h
Spd
kts
Gust
kts
18/11:30pm 14.3 11.5 12.5 89 1.0 NW 19 24 10 13 1015.8 1014.9 4.8
18/11:22pm 14.5 12.1 12.7 89 1.0 NW 17 22 9 12 1015.7 1014.8 4.8
18/11:00pm 14.6 11.6 12.6 88 1.1 WNW 20 30 11 16 1015.6 1014.7 4.8
18/10:30pm 14.6 13.1 13.0 90 0.9 WNW 13 19 7 10 1015.9 1015.0 4.8
18/10:27pm 14.6 13.1 13.1 91 0.9 NW 13 19 7 10 1015.9 1015.0 4.8
18/10:25pm 14.7 13.2 13.1 90 0.9 NW 13 19 7 10 1016.0 1015.2 4.8
18/10:00pm 14.7 11.9 13.2 91 0.9 NW 20 26 11 14 1016.7 1015.8 4.8
18/09:30pm 14.9 13.2 13.6 92 0.7 NW 15 20 8 11 1015.9 1015.0 4.8
18/09:00pm 15.1 12.5 13.8 92 0.8 W 20 28 11 15 1016.2 1015.4 4.8
18/08:30pm 15.5 12.6 13.9 90 0.9 W 22 32 12 17 1015.7 1014.8 4.0
18/08:16pm 16.0 14.3 14.7 92 0.8 WNW 17 20 9 11 1015.6 1014.7 3.2
18/08:11pm 16.1 14.4 14.6 91 0.9 WNW 17 22 9 12 1015.5 1014.6 2.4
18/08:00pm 16.5 14.3 14.5 88 1.2 NW 19 22 10 12 1015.5 1014.6 1.4
18/07:50pm 16.8 14.0 14.4 86 1.4 NW 22 32 12 17 1015.5 1014.6 1.2
18/07:30pm 16.9 13.4 14.4 85 1.5 NNW 26 35 14 19 1015.4 1014.5 1.2
18/07:00pm 16.8 14.7 14.6 87 1.3 NNW 19 26 10 14 1014.7 1013.9 1.2
18/06:30pm 16.9 16.1 15.1 89 1.1 NW 13 19 7 10 1014.9 1014.0 1.2
18/06:00pm 17.8 16.2 14.9 83 1.7 NW 17 20 9 11 1014.9 1014.0 0.4
18/05:30pm 19.1 17.7 14.4 74 2.8 WNW 15 22 8 12 1014.2 1013.3 0.0
18/05:00pm 19.7 18.2 14.3 71 3.2 NW 15 20 8 11 1013.9 1013.0 0.0
18/04:30pm 20.2 18.7 14.3 69 3.5 NW 15 19 8 10 1014.2 1013.3 0.0
18/04:00pm 20.5 18.1 14.4 68 3.7 NNW 20 28 11 15 1014.2 1013.3 0.0
18/03:30pm 20.7 17.4 14.1 66 3.9 NW 24 32 13 17 1014.5 1013.6 0.0
18/03:00pm 20.7 16.9 13.6 64 4.2 NW 26 35 14 19 1014.9 1014.0 0.0
18/02:30pm 21.1 17.1 14.0 64 4.2 NW 28 35 15 19 1014.9 1014.0 0.0
18/02:00pm 21.3 16.3 14.0 63 4.4 NW 33 43 18 23 1015.2 1014.3 0.0
18/01:30pm 21.5 18.3 14.2 63 4.4 NW 24 35 13 19 1015.6 1014.7 0.0

Latest Capital City Observations: Canberra | Sydney | Melbourne | Brisbane | Adelaide | Perth | Hobart | Darwin

Other Formats:

Comma delimited format used in spreadsheet applications
http://www.bom.gov.au/fwo/IDN60903/IDN60903.95716.axf

JavaScript Object Notation format (JSON) in row-major order
http://www.bom.gov.au/fwo/IDN60903/IDN60903.95716.json